Flight Track Log - Related Links

Times and Time Zones

All times are in EDT time to prevent confusion due to time zone crossing. See the AWI3778 flight status page for this flight to view local times or setup timezone preferences in your user account.

Time Position Orientation Groundspeed Altitude Reporting Facility
EDT Latitude Longitude Course Direction KTS MPH feet Rate Location/Type
Wed 01:03:14 PM 44.4736 -73.1586 242° Southwest 8 9 24,000  Level Boston Center
Wed 01:06:00 PM 44.3025 -73.2123 196° South  Level FlightAware Approximate
Wed 01:13:00 PM 43.6510 -73.4585 195° South  Level FlightAware Approximate
Wed 01:14:00 PM 43.5576 -73.4919 194° South  Level FlightAware Approximate
Wed 01:15:00 PM 43.4638 -73.5232 194° South  Level FlightAware Approximate
Wed 01:16:00 PM 43.3701 -73.5553 196° South  Level FlightAware Approximate
Wed 01:17:00 PM 43.2774 -73.5924 196° South  Level FlightAware Approximate
Wed 01:18:00 PM 43.1847 -73.6295 196° South  Level FlightAware Approximate
Wed 01:19:00 PM 43.0915 -73.6639 194° South  Level FlightAware Approximate
Wed 01:20:00 PM 42.9980 -73.6966 195° South  Level FlightAware Approximate
Wed 01:21:00 PM 42.9049 -73.7315 195° South  Level FlightAware Approximate
Wed 01:22:00 PM 42.8122 -73.7685 196° South  Level FlightAware Approximate
Wed 01:23:00 PM 42.7256 -73.8164 237° Southwest  Level FlightAware Approximate
Wed 01:24:00 PM 42.6736 -73.9271 237° Southwest  Level FlightAware Approximate
Wed 01:25:00 PM 42.6215 -74.0376 237° Southwest  Level FlightAware Approximate
Wed 01:26:00 PM 42.5693 -74.1479 237° Southwest  Level FlightAware Approximate
Wed 01:27:00 PM 42.5243 -74.2428 237° Southwest  Level FlightAware Approximate
Wed 01:28:00 PM 42.4792 -74.3374 237° Southwest  Level FlightAware Approximate
Wed 01:29:00 PM 42.4340 -74.4320 237° Southwest  Level FlightAware Approximate
Wed 01:30:00 PM 42.3866 -74.5245 235° Southwest  Level FlightAware Approximate
Wed 01:31:00 PM 42.3391 -74.6169 235° Southwest  Level FlightAware Approximate
Wed 01:32:00 PM 42.2916 -74.7091 235° Southwest  Level FlightAware Approximate
Wed 01:33:00 PM 42.2439 -74.8012 235° Southwest  Level FlightAware Approximate
Wed 01:34:00 PM 42.1962 -74.8931 235° Southwest  Level FlightAware Approximate
Wed 01:35:00 PM 42.1392 -74.9712 210° Southwest  Level FlightAware Approximate
Wed 01:36:00 PM 42.0670 -75.0268 210° Southwest  Level FlightAware Approximate
Wed 01:37:00 PM 41.9948 -75.0823 210° Southwest  Level FlightAware Approximate
Wed 01:38:00 PM 41.9290 -75.1482 228° Southwest  Level FlightAware Approximate
Wed 01:39:00 PM 41.8602 -75.2092 209° Southwest  Level FlightAware Approximate
Wed 01:40:00 PM 41.7877 -75.2637 209° Southwest  Level FlightAware Approximate
Wed 01:41:00 PM 41.7151 -75.3180 209° Southwest  Level FlightAware Approximate
Wed 01:42:00 PM 41.6431 -75.3735 217° Southwest  Level FlightAware Approximate
Wed 01:43:00 PM 41.5742 -75.4351 208° Southwest  Level FlightAware Approximate
Wed 01:44:00 PM 41.5009 -75.4875 208° Southwest  Level FlightAware Approximate
Wed 01:45:00 PM 41.4327 -75.5506 217° Southwest  Level FlightAware Approximate
Wed 01:46:00 PM 41.3603 -75.6043 207° Southwest  Level FlightAware Approximate
Wed 01:47:00 PM 41.2892 -75.6608 217° Southwest  Level FlightAware Approximate
Wed 01:48:00 PM 41.2117 -75.6833 180° South  Level FlightAware Approximate
Wed 01:49:00 PM 41.1286 -75.6833 180° South  Level FlightAware Approximate
Wed 01:50:00 PM 41.0454 -75.6833 180° South  Level FlightAware Approximate
Wed 01:51:00 PM 40.9623 -75.6833 180° South  Level FlightAware Approximate
Wed 01:52:00 PM 40.8792 -75.6833 180° South  Level FlightAware Approximate
Wed 01:53:00 PM 40.7960 -75.6833 180° South  Level FlightAware Approximate
Wed 01:54:00 PM 40.6946 -75.6833 180° South  Level FlightAware Approximate
Wed 01:55:00 PM 40.5931 -75.6833 180° South  Level FlightAware Approximate
Wed 01:56:00 PM 40.5293 -75.5978 120° Southeast  Level FlightAware Approximate
Wed 01:56:38 PM 44.4142 -73.3150 192° South 239 275 8,100  Level Boston Center
Wed 01:57:00 PM 40.4787 -75.4821 120° Southeast  Level FlightAware Approximate
Wed 01:57:38 PM 44.3369 -73.3369 191° South 277 319 10,500  Level Boston Center
Wed 01:58:00 PM 40.4068 -75.4059 169° South  Level FlightAware Approximate
Wed 01:58:38 PM 44.2556 -73.3589 191° South 312 359 11,500  Level Boston Center
Wed 01:59:00 PM 40.3152 -75.3524 155° Southeast  Level FlightAware Approximate
Wed 01:59:38 PM 44.1594 -73.3892 193° South 344 396 13,000  Level Boston Center
Wed 02:00:00 PM 40.2213 -75.3023 159° South  Level FlightAware Approximate
Wed 02:00:38 PM 44.0614 -73.4194 193° South 360 414 15,300  Level Boston Center
Wed 02:01:00 PM 40.1292 -75.2472 153° Southeast  Level FlightAware Approximate
Wed 02:01:38 PM 43.9589 -73.4494 192° South 377 434 17,100  Level Boston Center
Wed 02:02:38 PM 43.8525 -73.4794 191° South 385 443 18,200 1,250 Climbing Boston Center
Wed 02:03:38 PM 43.7417 -73.5147 193° South 395 455 19,600 1,450 Climbing Boston Center
Wed 02:04:38 PM 43.6289 -73.5444 191° South 409 471 21,100 1,250 Climbing Boston Center
Wed 02:05:38 PM 43.5139 -73.5794 192° South 415 478 22,100 1,100 Climbing Boston Center
Wed 02:06:38 PM 43.3989 -73.6144 192° South 420 483 23,300 1,050 Climbing Boston Center
Wed 02:07:38 PM 43.2797 -73.6464 191° South 427 491 24,200 750 Climbing Boston Center
Wed 02:08:38 PM 43.1836 -73.6758 193° South 432 497 24,800 800 Climbing Boston Center
Wed 02:09:38 PM 43.0225 -73.7239 192° South 443 510 25,800 600 Climbing Boston Center
Wed 02:10:38 PM 42.9033 -73.7581 192° South 449 517 26,000 100 Climbing Boston Center
Wed 02:11:38 PM 42.7906 -73.7925 193° South 444 511 26,000  Level Boston Center
Wed 02:12:38 PM 42.7058 -73.8922 221° Southwest 401 461 26,000  Level Boston Center
Wed 02:13:38 PM 42.6436 -74.0208 237° Southwest 395 455 26,000  Level Boston Center
Wed 02:14:38 PM 42.5792 -74.1517 236° Southwest 410 472 26,000  Level Boston Center
Wed 02:15:38 PM 42.5233 -74.2711 238° Southwest 419 482 26,000  Level Boston Center
Wed 02:16:38 PM 42.4586 -74.3989 236° Southwest 419 482 26,000  Level Boston Center
Wed 02:17:38 PM 42.3958 -74.5261 236° Southwest 419 482 26,000 -200 Level Boston Center
Wed 02:18:38 PM 42.3308 -74.6531 235° Southwest 413 475 25,600 -1,150 Descending Boston Center
Wed 02:19:38 PM 42.2700 -74.7772 237° Southwest 408 470 23,700 -1,850 Descending Boston Center
Wed 02:20:38 PM 42.2092 -74.9011 236° Southwest 403 464 21,900 -1,362 Descending Boston Center
Wed 02:23:05 PM 41.9875 -75.1181 216° Southwest 387 445 19,000 -837 Descending New York Center
Wed 02:24:06 PM 41.9017 -75.1878 211° Southwest 367 422 19,000  Level New York Center
Wed 02:25:06 PM 41.8264 -75.2494 211° Southwest 361 415 19,000  Level New York Center
Wed 02:26:04 PM 41.7383 -75.3186 210° Southwest 366 421 19,000 -1,008 Level New York Center
Wed 02:27:05 PM 41.6417 -75.3953 211° Southwest 371 427 17,000 -2,164 Descending New York Center
Wed 02:28:06 PM 41.5622 -75.4592 211° Southwest 357 411 14,600 -2,420 Descending New York Center
Wed 02:29:04 PM 41.4847 -75.5231 212° Southwest 342 394 12,200 -1,322 Descending New York Center
Wed 02:30:04 PM 41.4181 -75.5764 211° Southwest 326 375 12,000 -99 Descending New York Center
Wed 02:31:05 PM 41.3361 -75.6394 210° Southwest 320 368 12,000  Level New York Center
Wed 02:32:06 PM 41.2633 -75.6867 206° Southwest 320 368 12,000  Level New York Center
Wed 02:33:06 PM 41.1697 -75.6881 181° South 304 350 12,000  Level New York Center
Wed 02:34:06 PM 41.0864 -75.6875 180° South 315 362 12,000  Level New York Center
Wed 02:35:04 PM 40.9989 -75.6867 180° South 315 362 12,000  Level New York Center
Wed 02:36:05 PM 40.9094 -75.6858 180° South 315 362 12,000  Level New York Center
Wed 02:37:05 PM 40.8239 -75.6878 181° South 310 357 12,000  Level New York Center
Wed 02:38:04 PM 40.7447 -75.6850 178° South 310 357 12,000  Level New York Center
Wed 02:39:05 PM 40.6572 -75.6869 181° South 315 362 12,000 -50 Level New York Center
Wed 02:40:05 PM 40.5689 -75.6558 165° South 310 357 11,900 -50 Descending New York Center
Wed 02:41:06 PM 40.5164 -75.5647 127° Southeast 289 333 11,900 -655 Level New York Center
Wed 02:42:04 PM 40.4781 -75.4831 122° Southeast 289 333 10,600 -966 Descending New York Center
Wed 02:43:04 PM 40.4178 -75.4217 142° Southeast 284 327 10,000 -450 Descending New York Center
Wed 02:44:04 PM 40.3283 -75.4183 178° South 262 302 9,700 -645 Descending New York Center
Wed 02:45:05 PM 40.2492 -75.4158 179° South 283 326 8,700 -950 Descending New York Center
Wed 02:46:04 PM 40.1722 -75.4161 180° South 290 334 7,800 -994 Descending New York Center
Wed 02:47:54 PM 40.0500 -75.4000 174° South 230 265 5,900 -1,024 Descending Philadelphia TRACON
Wed 02:48:54 PM 39.9833 -75.3833 169° South 229 264 4,900 -950 Descending Philadelphia TRACON
Wed 02:49:54 PM 39.9333 -75.3500 153° Southeast 225 259 4,000 -450 Descending Philadelphia TRACON
Wed 02:50:54 PM 39.8833 -75.3333 166° South 199 229 4,000 -500 Level Philadelphia TRACON
Wed 02:51:54 PM 39.8167 -75.3000 159° South 208 239 3,000 -1,050 Descending Philadelphia TRACON
Wed 02:52:54 PM 39.7667 -75.2667 153° Southeast 198 228 1,900 -1,100 Descending Philadelphia TRACON

Login

Don't have an account? Register now (free) for customized features, flight alerts, and more!